Pagrindinis puslapis
METAR-TAF:

METAR-TAF

Oro uostai :

Grand Terkas, Terksas ir Kaikosas

platuma: 21-26-40N, ilguma: 071-08-32W, Aukštis: 4 m

Dabartinis oras

Ataskaita buvo paskelbta 12 valandos ir 42 minutes, ne 18:00 UTC
Vėjas 3 kt iš Rytų/Šiaurės Rytų
Temperatūra 28°C
Drėgmė 74%
Slėgis 1016 hPa
Matomumas 10 km arba daugiau
Išsisklaidę debesys ne aukštis 1500 ft

METAR: MBGT 251800Z 06003KT 9999 SCT015 28/23 Q1016

Laikas: 02:42 (06:42 UTC)

Prognozė

Ataskaita buvo paskelbta 56 minutes, ne 05:46 UTC
Prognozė galioja nuo 26 metu 06 UTC su 27 metu 06 UTC
Vėjas 5 kt iš Rytų
Matomumas 10 km arba daugiau
Išsisklaidę debesys ne aukštis 1800 ft
Tapsmas
nuo 26 metu 12 UTC su 26 metu 14 UTC
Išsisklaidę debesys ne aukštis 2000 ft
Išsisklaidę debesys ne aukštis 4000 ft

TAF: MBGT 260546Z 2606/2706 09005KT 9999 SCT018 BECMG 2612/2614 SCT020 SCT040

Orai ataskaitas ir orų prognozės (METAR, TAF).

turimą stotys yra geltonos ir raudonos taškus žemėlapyje.

Perkelti pele per norėdami pamatyti stoties vardą.

Tada spustelėkite, norėdami matyti oro stebėjimo ir prognozės.

Norėdami pakeisti žemėlapį: spustelėkite ant žalios mygtukų su juodo kryžiaus žemyn,; žalią mygtuką su brūkšneliu, jei norite nutolinti; arba žalių rodyklių gretimoms žemėlapius.


METAR-TAF: